createdAt,value
2018-05-24T00:02:15.524Z,75.10
2018-05-24T00:04:43.666Z,75.10
2018-05-24T00:07:12.551Z,75.20
2018-05-24T00:09:40.664Z,75.20
2018-05-24T00:12:08.838Z,75.20
2018-05-24T00:14:36.961Z,75.30
2018-05-24T00:17:05.082Z,75.30
2018-05-24T00:19:33.225Z,75.30
2018-05-24T00:22:01.327Z,75.30
2018-05-24T00:24:29.707Z,75.30
2018-05-24T00:26:57.833Z,75.30
2018-05-24T00:29:25.996Z,75.30
2018-05-24T00:31:54.131Z,75.30
2018-05-24T00:34:25.990Z,75.30
2018-05-24T00:36:54.128Z,75.30
2018-05-24T00:39:23.004Z,75.40
2018-05-24T00:41:51.126Z,75.40
2018-05-24T00:44:19.220Z,75.30
2018-05-24T00:46:47.338Z,75.40
2018-05-24T00:49:15.448Z,75.40
2018-05-24T00:51:43.602Z,75.40
2018-05-24T00:54:11.703Z,75.40
2018-05-24T00:56:39.828Z,75.40
2018-05-24T00:59:07.960Z,75.40
2018-05-24T01:01:36.949Z,75.40
2018-05-24T01:04:05.077Z,75.40
2018-05-24T01:06:33.896Z,75.40
2018-05-24T01:09:02.026Z,75.30
2018-05-24T01:11:30.135Z,75.40
2018-05-24T01:13:59.355Z,75.40
2018-05-24T01:16:27.479Z,75.40
2018-05-24T01:18:55.695Z,75.40
2018-05-24T01:21:23.882Z,75.50
2018-05-24T01:23:52.005Z,75.50
2018-05-24T01:26:20.166Z,75.50
2018-05-24T01:28:48.309Z,75.50
2018-05-24T01:31:16.429Z,75.50
2018-05-24T01:33:44.537Z,75.50
2018-05-24T01:36:12.687Z,75.50
2018-05-24T01:38:40.795Z,75.50
2018-05-24T01:41:09.611Z,75.50
2018-05-24T01:43:37.718Z,75.60
2018-05-24T01:46:05.881Z,75.60
2018-05-24T01:48:33.992Z,75.80
2018-05-24T01:51:02.103Z,75.90
2018-05-24T01:53:30.236Z,75.90
2018-05-24T01:55:58.418Z,75.90
2018-05-24T01:58:26.644Z,76.00
2018-05-24T02:00:54.778Z,76.00
2018-05-24T02:03:22.897Z,76.10
2018-05-24T02:05:51.013Z,76.10
2018-05-24T02:08:19.140Z,77.00
2018-05-24T02:10:47.251Z,76.10
2018-05-24T02:13:15.379Z,76.20
2018-05-24T02:15:43.499Z,76.20
2018-05-24T02:18:11.741Z,76.30
2018-05-24T02:20:39.907Z,76.30
2018-05-24T02:23:08.116Z,76.40
2018-05-24T02:25:37.024Z,76.50
2018-05-24T02:28:05.239Z,76.50
2018-05-24T02:30:33.322Z,76.60
2018-05-24T02:33:01.446Z,76.60
2018-05-24T02:35:29.569Z,76.60
2018-05-24T02:37:57.682Z,76.60
2018-05-24T02:40:25.814Z,76.50
2018-05-24T02:42:54.010Z,76.60
2018-05-24T02:45:22.110Z,76.60
2018-05-24T02:47:50.290Z,76.50
2018-05-24T02:50:18.890Z,76.60
2018-05-24T02:52:47.124Z,76.60
2018-05-24T02:55:15.401Z,76.60
2018-05-24T02:57:43.639Z,76.70
2018-05-24T03:00:11.899Z,76.80
2018-05-24T03:02:40.135Z,76.90
2018-05-24T03:05:08.347Z,76.90
2018-05-24T03:07:36.479Z,76.90
2018-05-24T03:10:04.615Z,76.80
2018-05-24T03:12:32.717Z,76.80
2018-05-24T03:15:00.840Z,76.80
2018-05-24T03:17:28.943Z,76.80
2018-05-24T03:19:57.053Z,76.80
2018-05-24T03:22:25.183Z,76.90
2018-05-24T03:24:53.394Z,76.80
2018-05-24T03:27:21.567Z,76.80
2018-05-24T03:29:50.171Z,76.80
2018-05-24T03:32:18.284Z,76.90
2018-05-24T03:34:46.407Z,77.80
2018-05-24T03:37:14.581Z,76.90
2018-05-24T03:39:43.891Z,76.90
2018-05-24T03:42:12.050Z,76.90
2018-05-24T03:44:40.200Z,76.80
2018-05-24T03:47:12.685Z,76.80
2018-05-24T03:49:40.835Z,76.90
2018-05-24T03:52:09.011Z,77.00
2018-05-24T03:54:37.142Z,77.00
2018-05-24T03:57:05.687Z,77.10
2018-05-24T04:00:13.130Z,77.10
2018-05-24T04:03:00.046Z,77.20
2018-05-24T04:05:28.913Z,77.30
2018-05-24T04:07:57.794Z,77.20
2018-05-24T04:10:30.406Z,77.50
2018-05-24T04:13:01.062Z,77.50
2018-05-24T04:15:29.190Z,77.50
2018-05-24T04:17:58.073Z,77.30
2018-05-24T04:20:26.203Z,77.60
2018-05-24T04:23:00.212Z,77.70
2018-05-24T04:25:28.608Z,77.70
2018-05-24T04:27:57.664Z,77.70
2018-05-24T04:30:25.776Z,77.80
2018-05-24T04:32:53.907Z,77.90
2018-05-24T04:35:22.013Z,78.00
2018-05-24T04:37:50.146Z,78.00
2018-05-24T04:40:18.492Z,78.00
2018-05-24T04:42:46.603Z,78.20
2018-05-24T04:45:14.730Z,78.20
2018-05-24T04:47:42.844Z,78.20
2018-05-24T04:50:10.985Z,78.30
2018-05-24T04:52:39.111Z,78.20
2018-05-24T04:55:07.263Z,78.30
2018-05-24T04:57:35.385Z,78.40
2018-05-24T05:00:03.540Z,78.30
2018-05-24T05:02:31.645Z,78.30
2018-05-24T05:04:59.791Z,78.40
2018-05-24T05:07:27.907Z,78.50
2018-05-24T05:09:56.477Z,78.60
2018-05-24T05:12:25.957Z,78.70
2018-05-24T05:14:54.243Z,78.60
2018-05-24T05:17:22.654Z,78.70
2018-05-24T05:19:51.530Z,78.80
2018-05-24T05:22:19.661Z,78.70
2018-05-24T05:24:47.770Z,78.70
2018-05-24T05:27:15.906Z,78.90
2018-05-24T05:29:44.644Z,79.00
2018-05-24T05:32:12.822Z,78.90
2018-05-24T05:34:40.943Z,79.70
2018-05-24T05:37:09.072Z,79.00
2018-05-24T05:39:38.226Z,79.10
2018-05-24T05:42:06.343Z,79.10
2018-05-24T05:44:34.471Z,79.20
2018-05-24T05:47:02.597Z,79.20
2018-05-24T05:49:32.036Z,79.30
2018-05-24T05:52:00.241Z,79.20
2018-05-24T05:54:33.356Z,79.10
2018-05-24T05:57:07.827Z,79.20
2018-05-24T05:59:35.951Z,79.20
2018-05-24T06:02:04.072Z,79.10
2018-05-24T06:04:32.215Z,79.10
2018-05-24T06:07:00.383Z,79.10
2018-05-24T06:09:28.491Z,79.10
2018-05-24T06:11:56.926Z,79.20
2018-05-24T06:14:25.045Z,79.30
2018-05-24T06:16:54.531Z,79.30
2018-05-24T06:19:22.667Z,79.30
2018-05-24T06:21:51.555Z,79.40
2018-05-24T06:24:19.661Z,79.30
2018-05-24T06:26:47.805Z,79.30
2018-05-24T06:29:15.917Z,79.50
2018-05-24T06:31:44.044Z,79.50
2018-05-24T06:34:12.939Z,79.60
2018-05-24T06:36:41.338Z,79.40
2018-05-24T06:39:09.465Z,79.60
2018-05-24T06:41:39.317Z,79.60
2018-05-24T06:44:08.082Z,79.80
2018-05-24T06:46:36.336Z,79.80
2018-05-24T06:49:05.511Z,79.90
2018-05-24T06:51:33.633Z,79.80
2018-05-24T06:54:01.768Z,79.90
2018-05-24T06:56:30.000Z,79.80
2018-05-24T06:58:58.130Z,79.70
2018-05-24T07:01:26.292Z,79.80
2018-05-24T07:03:54.410Z,79.80
2018-05-24T07:06:22.545Z,79.80
2018-05-24T07:08:50.666Z,79.80
2018-05-24T07:11:18.815Z,79.80
2018-05-24T07:13:46.909Z,79.90
2018-05-24T07:16:15.032Z,79.80
2018-05-24T07:18:43.199Z,79.80
2018-05-24T07:21:11.417Z,79.80
2018-05-24T07:23:40.406Z,79.90
2018-05-24T07:26:08.529Z,79.90
2018-05-24T07:28:36.653Z,79.90
2018-05-24T07:31:04.796Z,80.00
2018-05-24T07:33:33.876Z,80.00
2018-05-24T07:36:02.908Z,79.90
2018-05-24T07:38:31.054Z,79.90
2018-05-24T07:40:59.175Z,80.00
2018-05-24T07:43:27.308Z,80.00
2018-05-24T07:45:55.418Z,80.00
2018-05-24T07:48:23.546Z,80.00
2018-05-24T07:50:51.658Z,80.10
2018-05-24T07:53:19.794Z,80.10
2018-05-24T07:55:47.900Z,80.10
2018-05-24T07:58:16.848Z,80.10
2018-05-24T08:00:44.950Z,80.10
2018-05-24T08:03:13.066Z,80.20
2018-05-24T08:05:41.211Z,80.30
2018-05-24T08:17:49.367Z,80.50
2018-05-24T08:20:17.482Z,79.70
2018-05-24T08:22:45.660Z,80.30
2018-05-24T08:25:13.817Z,80.90
2018-05-24T08:27:41.951Z,81.10
2018-05-24T08:30:10.097Z,81.10
2018-05-24T08:32:38.213Z,81.20
2018-05-24T08:35:06.340Z,81.10
2018-05-24T08:37:34.473Z,80.90
2018-05-24T08:40:02.635Z,81.00
2018-05-24T08:42:30.801Z,81.00
2018-05-24T08:44:59.705Z,81.00
2018-05-24T08:47:28.635Z,80.80
2018-05-24T08:49:59.028Z,80.80
2018-05-24T08:52:27.163Z,80.80
2018-05-24T08:54:55.269Z,80.90
2018-05-24T08:57:24.135Z,81.10
2018-05-24T08:59:52.290Z,81.00
2018-05-24T09:02:20.409Z,80.90
2018-05-24T09:04:48.552Z,81.00
2018-05-24T09:07:16.660Z,81.00
2018-05-24T09:09:44.797Z,81.20
2018-05-24T09:12:12.903Z,81.20
2018-05-24T09:14:41.084Z,81.10
2018-05-24T09:17:09.271Z,81.00
2018-05-24T09:19:37.496Z,81.00
2018-05-24T09:22:06.160Z,81.00
2018-05-24T09:24:34.291Z,81.10
2018-05-24T09:27:02.415Z,81.00
2018-05-24T09:29:30.659Z,81.00
2018-05-24T09:31:58.746Z,81.00
2018-05-24T09:34:26.848Z,81.00
2018-05-24T09:36:55.025Z,81.00
2018-05-24T09:39:23.126Z,81.00
2018-05-24T09:41:51.240Z,81.20
2018-05-24T09:44:19.371Z,81.30
2018-05-24T09:46:47.493Z,81.50
2018-05-24T09:49:15.618Z,81.40
2018-05-24T09:51:43.821Z,81.40
2018-05-24T09:54:12.049Z,81.30
2018-05-24T09:56:40.962Z,81.30
2018-05-24T09:59:09.086Z,81.10
2018-05-24T10:01:37.199Z,81.20
2018-05-24T10:04:05.303Z,81.20
2018-05-24T10:06:33.431Z,81.20
2018-05-24T10:09:02.318Z,81.30
2018-05-24T10:11:31.229Z,81.30
2018-05-24T10:13:59.347Z,81.20
2018-05-24T10:16:27.541Z,81.30
2018-05-24T10:18:55.621Z,81.30
2018-05-24T10:21:24.511Z,81.40
2018-05-24T10:23:52.643Z,81.40
2018-05-24T10:26:20.739Z,81.40
2018-05-24T10:28:48.869Z,81.50
2018-05-24T10:31:17.316Z,81.50
2018-05-24T10:33:45.442Z,81.50
2018-05-24T10:36:13.560Z,81.50
2018-05-24T10:38:42.443Z,81.60
2018-05-24T10:41:11.354Z,81.60
2018-05-24T10:43:40.262Z,81.60
2018-05-24T10:46:08.374Z,81.50
2018-05-24T10:48:36.515Z,81.50
2018-05-24T10:51:04.775Z,81.50
2018-05-24T10:53:32.878Z,81.70
2018-05-24T10:56:01.145Z,81.60
2018-05-24T10:58:29.309Z,81.60
2018-05-24T11:00:57.563Z,81.60
2018-05-24T11:03:26.609Z,81.50
2018-05-24T11:05:54.628Z,81.50
2018-05-24T11:08:22.733Z,81.50
2018-05-24T11:10:50.888Z,81.50
2018-05-24T11:13:18.988Z,81.40
2018-05-24T11:15:47.115Z,81.30
2018-05-24T11:18:15.535Z,81.30
2018-05-24T11:20:43.713Z,81.10
2018-05-24T11:23:11.834Z,81.00
2018-05-24T11:25:40.057Z,80.80
2018-05-24T11:28:08.180Z,80.70
2018-05-24T11:30:37.057Z,80.40
2018-05-24T11:33:05.752Z,80.20
2018-05-24T11:35:34.887Z,80.20
2018-05-24T11:38:03.060Z,79.80
2018-05-24T11:40:31.159Z,79.50
2018-05-24T11:42:59.269Z,79.10
2018-05-24T11:45:27.404Z,78.60
2018-05-24T11:47:55.517Z,79.10
2018-05-24T11:50:23.671Z,77.90
2018-05-24T11:52:51.829Z,77.80
2018-05-24T11:55:20.034Z,77.50
2018-05-24T11:57:48.952Z,77.40
2018-05-24T12:00:17.086Z,77.30
2018-05-24T12:02:45.211Z,77.10
2018-05-24T12:05:13.313Z,77.10
2018-05-24T12:07:41.445Z,77.20
2018-05-24T12:10:09.551Z,77.00
2018-05-24T12:12:37.667Z,76.60
2018-05-24T12:15:05.801Z,76.10
2018-05-24T12:17:33.956Z,75.40
2018-05-24T12:20:02.077Z,75.10
2018-05-24T12:22:30.210Z,75.20
2018-05-24T12:24:58.332Z,75.20
2018-05-24T12:27:26.446Z,75.40
2018-05-24T12:29:54.645Z,75.50
2018-05-24T12:32:22.998Z,75.50
2018-05-24T12:34:51.132Z,75.30
2018-05-24T12:37:19.243Z,75.20
2018-05-24T12:39:47.495Z,75.50
2018-05-24T12:42:15.747Z,75.60
2018-05-24T12:44:48.935Z,75.20
2018-05-24T12:47:17.100Z,74.90
2018-05-24T12:49:45.412Z,74.20
2018-05-24T12:52:13.599Z,72.30
2018-05-24T12:54:41.885Z,70.40
2018-05-24T12:57:10.079Z,69.00
2018-05-24T12:59:38.214Z,67.70
2018-05-24T13:02:06.351Z,67.10
2018-05-24T13:04:34.494Z,66.90
2018-05-24T13:07:02.658Z,66.80
2018-05-24T13:09:30.895Z,66.70
2018-05-24T13:11:59.187Z,67.50
2018-05-24T13:14:27.355Z,67.00
2018-05-24T13:16:55.517Z,67.20
2018-05-24T13:19:23.597Z,66.50
2018-05-24T13:21:51.757Z,66.00
2018-05-24T13:24:20.780Z,66.80
2018-05-24T13:26:48.948Z,66.70
2018-05-24T13:29:17.072Z,67.00
2018-05-24T13:31:45.213Z,67.50
2018-05-24T13:34:13.359Z,68.10
2018-05-24T13:36:41.467Z,68.30
2018-05-24T13:39:09.600Z,67.80
2018-05-24T13:41:37.755Z,67.70
2018-05-24T13:44:05.911Z,67.90
2018-05-24T13:46:34.068Z,68.30
2018-05-24T13:49:02.296Z,68.20
2018-05-24T13:51:30.640Z,67.90
2018-05-24T13:53:58.790Z,67.60
2018-05-24T13:56:27.011Z,67.60
2018-05-24T13:58:55.264Z,67.90
2018-05-24T14:01:23.411Z,68.30
2018-05-24T14:03:51.546Z,68.70
2018-05-24T14:06:19.684Z,68.50
2018-05-24T14:08:48.555Z,68.30
2018-05-24T14:11:16.668Z,67.90
2018-05-24T14:13:44.844Z,67.40
2018-05-24T14:16:13.026Z,67.10
2018-05-24T14:18:41.143Z,66.90
2018-05-24T14:21:09.265Z,66.90
2018-05-24T14:23:37.562Z,66.90
2018-05-24T14:26:05.674Z,66.50
2018-05-24T14:28:33.799Z,66.10
2018-05-24T14:31:01.911Z,65.90
2018-05-24T14:33:30.041Z,66.10
2018-05-24T14:35:58.157Z,65.80
2018-05-24T14:38:26.661Z,65.90
2018-05-24T14:40:54.781Z,65.90
2018-05-24T14:43:22.889Z,66.70
2018-05-24T14:45:51.006Z,65.70
2018-05-24T14:48:19.203Z,65.90
2018-05-24T14:50:47.672Z,66.20
2018-05-24T14:53:15.784Z,66.40
2018-05-24T14:55:43.990Z,66.90
2018-05-24T14:58:12.217Z,67.10
2018-05-24T15:00:40.500Z,67.10
2018-05-24T15:03:08.759Z,67.10
2018-05-24T15:05:36.970Z,67.10
2018-05-24T15:08:05.115Z,67.10
2018-05-24T15:10:33.241Z,67.00
2018-05-24T15:13:01.383Z,67.40
2018-05-24T15:15:29.490Z,67.70
2018-05-24T15:17:57.617Z,67.50
2018-05-24T15:20:25.708Z,67.70
2018-05-24T15:22:53.822Z,67.90
2018-05-24T15:25:21.969Z,68.20
2018-05-24T15:27:50.144Z,68.20
2018-05-24T15:30:18.256Z,68.10
2018-05-24T15:32:46.392Z,68.10
2018-05-24T15:35:14.515Z,68.10
2018-05-24T15:37:42.660Z,68.60
2018-05-24T15:40:10.756Z,68.70
2018-05-24T15:42:38.923Z,68.30
2018-05-24T15:45:07.099Z,67.90
2018-05-24T15:47:35.197Z,68.10
2018-05-24T15:50:03.305Z,68.40
2018-05-24T15:52:31.449Z,67.30
2018-05-24T15:54:59.733Z,66.80
2018-05-24T15:57:27.853Z,66.20
2018-05-24T15:59:55.972Z,65.70
2018-05-24T16:02:24.073Z,65.50
2018-05-24T16:04:52.195Z,65.30
2018-05-24T16:07:20.315Z,65.30
2018-05-24T16:09:48.488Z,65.40
2018-05-24T16:12:16.606Z,65.40
2018-05-24T16:14:44.720Z,65.60
2018-05-24T16:17:12.863Z,65.60
2018-05-24T16:19:40.966Z,65.70
2018-05-24T16:22:09.100Z,66.10
2018-05-24T16:24:37.206Z,66.60
2018-05-24T16:27:05.344Z,67.10
2018-05-24T16:29:33.497Z,67.50
2018-05-24T16:32:01.755Z,67.70
2018-05-24T16:34:29.930Z,68.10
2018-05-24T16:36:58.837Z,68.50
2018-05-24T16:39:26.963Z,68.40
2018-05-24T16:41:55.082Z,68.40
2018-05-24T16:44:23.202Z,68.70
2018-05-24T16:46:51.337Z,68.90
2018-05-24T16:49:19.529Z,68.70
2018-05-24T16:51:47.751Z,68.70
2018-05-24T16:54:16.099Z,68.90
2018-05-24T16:56:44.253Z,69.40
2018-05-24T16:59:12.471Z,69.90
2018-05-24T17:01:42.098Z,71.90
2018-05-24T17:04:10.208Z,71.10
2018-05-24T17:06:38.961Z,71.60
2018-05-24T17:09:08.547Z,72.10
2018-05-24T17:11:36.677Z,72.60
2018-05-24T17:14:05.132Z,73.10
2018-05-24T17:16:33.587Z,73.40
2018-05-24T17:19:01.780Z,73.70
2018-05-24T17:21:30.201Z,73.90
2018-05-24T17:23:58.350Z,74.20
2018-05-24T17:26:26.485Z,74.40
2018-05-24T17:28:54.615Z,74.60
2018-05-24T17:31:22.777Z,74.80
2018-05-24T17:33:50.904Z,74.80
2018-05-24T17:36:19.113Z,75.00
2018-05-24T17:38:47.348Z,75.10
2018-05-24T17:41:15.588Z,75.20
2018-05-24T17:43:43.874Z,75.20
2018-05-24T17:46:11.991Z,75.30
2018-05-24T17:48:40.865Z,75.60
2018-05-24T17:51:09.003Z,76.30
2018-05-24T17:53:37.110Z,75.70
2018-05-24T17:56:06.125Z,75.60
2018-05-24T17:58:34.251Z,76.50
2018-05-24T18:01:02.418Z,75.70
2018-05-24T18:03:30.542Z,75.80
2018-05-24T18:05:58.696Z,75.80
2018-05-24T18:08:26.867Z,75.90
2018-05-24T18:10:54.958Z,75.90
2018-05-24T18:13:23.087Z,76.00
2018-05-24T18:15:51.208Z,75.90
2018-05-24T18:18:19.331Z,76.10
2018-05-24T18:20:47.451Z,76.10
2018-05-24T18:23:18.907Z,76.20
2018-05-24T18:25:47.067Z,76.20
2018-05-24T18:28:15.362Z,76.10
2018-05-24T18:30:52.055Z,76.20
2018-05-24T18:33:20.651Z,76.40
2018-05-24T18:35:48.791Z,76.40
2018-05-24T18:38:17.460Z,76.40
2018-05-24T18:40:45.587Z,76.50
2018-05-24T18:43:13.709Z,76.50
2018-05-24T18:45:41.833Z,76.50
2018-05-24T18:48:09.999Z,76.60
2018-05-24T18:50:38.166Z,76.60
2018-05-24T18:53:06.376Z,76.80
2018-05-24T18:55:34.643Z,76.80
2018-05-24T18:58:02.892Z,76.80
2018-05-24T19:00:31.152Z,76.80
2018-05-24T19:03:00.138Z,77.00
2018-05-24T19:05:28.300Z,77.00
2018-05-24T19:07:57.476Z,77.20
2018-05-24T19:10:25.589Z,77.20
2018-05-24T19:12:53.719Z,77.10
2018-05-24T19:15:21.874Z,77.20
2018-05-24T19:17:50.007Z,77.40
2018-05-24T19:20:18.158Z,77.50
2018-05-24T19:22:46.307Z,77.40
2018-05-24T19:25:14.431Z,77.50
2018-05-24T19:27:42.552Z,77.40
2018-05-24T19:30:10.697Z,77.50
2018-05-24T19:32:38.791Z,77.60
2018-05-24T19:35:07.055Z,78.50
2018-05-24T19:37:35.167Z,77.70
2018-05-24T19:40:03.311Z,77.60
2018-05-24T19:42:31.436Z,77.70
2018-05-24T19:44:59.563Z,77.80
2018-05-24T19:47:27.706Z,77.80
2018-05-24T19:49:55.840Z,77.90
2018-05-24T19:52:23.979Z,77.90
2018-05-24T19:54:52.086Z,78.00
2018-05-24T19:57:20.234Z,77.90
2018-05-24T19:59:48.342Z,77.80
2018-05-24T20:02:16.525Z,77.80
2018-05-24T20:04:44.621Z,77.60
2018-05-24T20:07:12.734Z,77.10
2018-05-24T20:09:41.609Z,76.50
2018-05-24T20:12:09.698Z,76.40
2018-05-24T20:14:38.646Z,76.70
2018-05-24T20:17:06.775Z,76.70
2018-05-24T20:19:34.906Z,76.80
2018-05-24T20:22:03.025Z,77.00
2018-05-24T20:24:31.200Z,77.10
2018-05-24T20:27:00.152Z,77.10
2018-05-24T20:29:28.284Z,77.30
2018-05-24T20:31:56.386Z,77.30
2018-05-24T20:34:24.508Z,77.50
2018-05-24T20:36:52.688Z,77.60
2018-05-24T20:39:20.823Z,77.60
2018-05-24T20:41:48.946Z,77.60
2018-05-24T20:44:17.066Z,77.70
2018-05-24T20:46:45.200Z,77.80
2018-05-24T20:49:13.318Z,77.80
2018-05-24T20:51:41.468Z,77.80
2018-05-24T20:54:09.597Z,77.80
2018-05-24T20:56:37.846Z,77.80
2018-05-24T20:59:06.714Z,77.80
2018-05-24T21:01:34.836Z,77.80
2018-05-24T21:04:02.947Z,77.80
2018-05-24T21:06:31.054Z,77.80
2018-05-24T21:08:59.176Z,77.80
2018-05-24T21:11:27.286Z,77.90
2018-05-24T21:13:55.631Z,77.90
2018-05-24T21:16:23.791Z,77.90
2018-05-24T21:18:52.035Z,77.90
2018-05-24T21:21:20.196Z,77.90
2018-05-24T21:23:48.312Z,77.90
2018-05-24T21:26:16.432Z,77.90
2018-05-24T21:28:45.132Z,77.90
2018-05-24T21:31:13.342Z,77.90
2018-05-24T21:33:41.509Z,77.90
2018-05-24T21:36:09.699Z,77.80
2018-05-24T21:38:37.807Z,77.80
2018-05-24T21:41:05.975Z,77.90
2018-05-24T21:43:34.105Z,77.90
2018-05-24T21:46:02.257Z,78.00
2018-05-24T21:48:30.355Z,78.10
2018-05-24T21:50:58.514Z,78.10
2018-05-24T21:53:27.374Z,78.20
2018-05-24T21:55:56.302Z,79.00
2018-05-24T21:58:24.419Z,78.10
2018-05-24T22:00:52.554Z,78.10
2018-05-24T22:03:21.458Z,78.10
2018-05-24T22:05:49.998Z,78.10
2018-05-24T22:08:18.918Z,78.10
2018-05-24T22:10:47.028Z,78.10
2018-05-24T22:13:15.166Z,78.00
2018-05-24T22:15:43.300Z,78.00
2018-05-24T22:18:11.419Z,78.00
2018-05-24T22:20:39.551Z,78.00
2018-05-24T22:23:07.667Z,78.00
2018-05-24T22:25:35.787Z,78.00
2018-05-24T22:28:03.987Z,78.00
2018-05-24T22:30:32.094Z,78.10
2018-05-24T22:33:00.207Z,78.10
2018-05-24T22:35:29.077Z,78.20
2018-05-24T22:37:57.240Z,78.10
2018-05-24T22:40:25.349Z,78.20
2018-05-24T22:42:53.485Z,78.20
2018-05-24T22:45:21.595Z,78.20
2018-05-24T22:47:50.476Z,78.40
2018-05-24T22:50:18.592Z,78.20
2018-05-24T22:52:46.681Z,78.40
2018-05-24T22:55:14.823Z,78.40
2018-05-24T22:57:42.919Z,78.40
2018-05-24T23:00:11.092Z,78.30
2018-05-24T23:02:39.201Z,78.30
2018-05-24T23:05:07.314Z,78.40
2018-05-24T23:07:35.405Z,78.30
2018-05-24T23:10:03.541Z,78.30
2018-05-24T23:12:32.413Z,78.30
2018-05-24T23:15:00.590Z,79.10
2018-05-24T23:17:28.686Z,78.30
2018-05-24T23:19:56.807Z,78.20
2018-05-24T23:22:37.573Z,78.30
2018-05-24T23:25:05.676Z,78.40
2018-05-24T23:27:33.789Z,78.30
2018-05-24T23:30:01.895Z,78.20
2018-05-24T23:32:30.194Z,78.30
2018-05-24T23:34:58.348Z,78.30
2018-05-24T23:37:26.846Z,78.20
2018-05-24T23:39:54.946Z,78.30
2018-05-24T23:42:23.076Z,78.20
2018-05-24T23:44:51.332Z,78.20
2018-05-24T23:47:19.546Z,78.30
2018-05-24T23:49:47.683Z,78.20
2018-05-24T23:52:15.791Z,78.20
2018-05-24T23:54:43.991Z,78.10
2018-05-24T23:57:13.281Z,78.10
2018-05-24T23:59:42.194Z,78.10
